TPC825 NZCH-NZWN
Flight info
| Callsign | TPC825 |
|---|---|
| Flight time | 0h 38m |
| Altitude | 27000 |
| Route | GRETA Y393 WARDS |
| Aircraft | TBM9/L-SDFGRWY/S |
Departure
| Time | 2026-05-07 21:06 |
|---|---|
| Airport | Christchurch International Airport (NZCH) |
Arrival
| Time | 2026-05-07 21:44 |
|---|---|
| Airport | Wellington International Airport (NZWN) |
| Time | Latitude | Longitude | Altitude | Speed | Heading |
|---|---|---|---|---|---|
| 2026-05-07 21:05 | -43.20916 | 172.78502 | 12756 ft | 180 kts | 39° |
| 2026-05-07 21:06 | -43.19959 | 172.79601 | 13144 ft | 182 kts | 39° |
| 2026-05-07 21:06 | -43.18987 | 172.80717 | 13529 ft | 183 kts | 39° |
| 2026-05-07 21:06 | -43.18010 | 172.81838 | 13909 ft | 184 kts | 39° |
| 2026-05-07 21:06 | -43.17023 | 172.82970 | 14289 ft | 185 kts | 39° |
| 2026-05-07 21:07 | -43.16028 | 172.84111 | 14665 ft | 186 kts | 39° |
| 2026-05-07 21:07 | -43.15043 | 172.85239 | 15033 ft | 187 kts | 39° |
| 2026-05-07 21:07 | -43.14036 | 172.86393 | 15404 ft | 188 kts | 39° |
| 2026-05-07 21:07 | -43.13025 | 172.87549 | 15777 ft | 189 kts | 39° |
| 2026-05-07 21:08 | -43.12022 | 172.88698 | 16135 ft | 190 kts | 39° |
| 2026-05-07 21:08 | -43.10999 | 172.89868 | 16495 ft | 191 kts | 39° |
| 2026-05-07 21:08 | -43.09971 | 172.91043 | 16855 ft | 193 kts | 39° |
| 2026-05-07 21:08 | -43.08937 | 172.92225 | 17209 ft | 194 kts | 39° |
| 2026-05-07 21:09 | -43.07897 | 172.93413 | 17557 ft | 195 kts | 39° |
| 2026-05-07 21:09 | -43.06859 | 172.94597 | 17895 ft | 197 kts | 39° |
| 2026-05-07 21:09 | -43.05806 | 172.95800 | 18242 ft | 197 kts | 39° |
| 2026-05-07 21:09 | -43.04749 | 172.97006 | 18589 ft | 198 kts | 39° |
| 2026-05-07 21:10 | -43.04170 | 172.97656 | 18772 ft | 199 kts | 37° |
| 2026-05-07 21:10 | -43.03350 | 172.98560 | 19030 ft | 200 kts | 40° |
| 2026-05-07 21:10 | -43.02312 | 172.99798 | 19363 ft | 201 kts | 40° |
| 2026-05-07 21:10 | -43.01234 | 173.01031 | 19702 ft | 202 kts | 39° |
| 2026-05-07 21:11 | -43.00146 | 173.02256 | 20036 ft | 203 kts | 39° |
| 2026-05-07 21:11 | -42.99048 | 173.03500 | 20366 ft | 204 kts | 39° |
| 2026-05-07 21:11 | -42.96858 | 173.05981 | 21009 ft | 207 kts | 37° |
| 2026-05-07 21:12 | -42.95689 | 173.07142 | 21328 ft | 208 kts | 36° |
| 2026-05-07 21:12 | -42.94526 | 173.08321 | 21647 ft | 209 kts | 36° |
| 2026-05-07 21:12 | -42.93363 | 173.09498 | 21971 ft | 210 kts | 36° |
| 2026-05-07 21:12 | -42.92177 | 173.10692 | 22286 ft | 211 kts | 36° |
| 2026-05-07 21:13 | -42.91002 | 173.11873 | 22603 ft | 212 kts | 36° |
| 2026-05-07 21:13 | -42.89810 | 173.13070 | 22917 ft | 213 kts | 36° |
| 2026-05-07 21:13 | -42.88624 | 173.14262 | 23217 ft | 214 kts | 36° |
| 2026-05-07 21:13 | -42.87422 | 173.15468 | 23515 ft | 215 kts | 36° |
| 2026-05-07 21:14 | -42.86209 | 173.16684 | 23813 ft | 216 kts | 36° |
| 2026-05-07 21:14 | -42.84992 | 173.17904 | 24107 ft | 217 kts | 36° |
| 2026-05-07 21:14 | -42.83767 | 173.19133 | 24402 ft | 218 kts | 36° |
| 2026-05-07 21:14 | -42.82553 | 173.20350 | 24690 ft | 219 kts | 36° |
| 2026-05-07 21:15 | -42.81316 | 173.21580 | 24978 ft | 220 kts | 36° |
| 2026-05-07 21:15 | -42.80105 | 173.22800 | 25260 ft | 221 kts | 36° |
| 2026-05-07 21:15 | -42.79622 | 173.23286 | 25368 ft | 222 kts | 36° |
| 2026-05-07 21:15 | -42.78373 | 173.24536 | 25657 ft | 223 kts | 36° |
| 2026-05-07 21:16 | -42.77114 | 173.25790 | 25969 ft | 224 kts | 36° |
| 2026-05-07 21:16 | -42.75855 | 173.27045 | 26322 ft | 225 kts | 36° |
| 2026-05-07 21:16 | -42.74602 | 173.28296 | 26666 ft | 226 kts | 36° |
| 2026-05-07 21:16 | -42.73319 | 173.29577 | 26989 ft | 231 kts | 36° |
| 2026-05-07 21:17 | -42.71971 | 173.30924 | 27003 ft | 249 kts | 36° |
| 2026-05-07 21:17 | -42.70544 | 173.32354 | 27011 ft | 265 kts | 36° |
| 2026-05-07 21:17 | -42.69014 | 173.33885 | 27011 ft | 278 kts | 36° |
| 2026-05-07 21:17 | -42.67417 | 173.35476 | 27010 ft | 289 kts | 36° |
| 2026-05-07 21:18 | -42.65785 | 173.37099 | 27010 ft | 298 kts | 36° |
| 2026-05-07 21:18 | -42.64086 | 173.38786 | 27010 ft | 305 kts | 36° |
| 2026-05-07 21:18 | -42.62369 | 173.40494 | 26922 ft | 312 kts | 36° |
| 2026-05-07 21:18 | -42.60576 | 173.42279 | 26555 ft | 326 kts | 36° |
| 2026-05-07 21:19 | -42.58709 | 173.44139 | 26115 ft | 334 kts | 36° |
| 2026-05-07 21:19 | -42.56827 | 173.46002 | 25668 ft | 335 kts | 36° |
| 2026-05-07 21:19 | -42.54961 | 173.47845 | 25226 ft | 335 kts | 36° |
| 2026-05-07 21:19 | -42.53075 | 173.49710 | 24778 ft | 336 kts | 36° |
| 2026-05-07 21:20 | -42.51183 | 173.51584 | 24327 ft | 336 kts | 36° |
| 2026-05-07 21:20 | -42.49294 | 173.53452 | 23882 ft | 336 kts | 36° |
| 2026-05-07 21:20 | -42.47402 | 173.55319 | 23433 ft | 336 kts | 36° |
| 2026-05-07 21:20 | -42.45509 | 173.57187 | 22985 ft | 337 kts | 36° |
| 2026-05-07 21:21 | -42.43608 | 173.59062 | 22535 ft | 337 kts | 36° |
| 2026-05-07 21:21 | -42.41727 | 173.60916 | 22090 ft | 338 kts | 36° |
| 2026-05-07 21:21 | -42.40953 | 173.61682 | 21907 ft | 338 kts | 36° |
| 2026-05-07 21:22 | -42.39222 | 173.63388 | 21497 ft | 339 kts | 36° |
| 2026-05-07 21:22 | -42.38469 | 173.64123 | 21319 ft | 339 kts | 36° |
| 2026-05-07 21:22 | -42.38015 | 173.64567 | 21215 ft | 339 kts | 36° |
| 2026-05-07 21:22 | -42.36091 | 173.66455 | 20757 ft | 339 kts | 36° |
| 2026-05-07 21:23 | -42.34178 | 173.68340 | 20303 ft | 340 kts | 36° |
| 2026-05-07 21:23 | -42.32286 | 173.70191 | 19856 ft | 340 kts | 36° |
| 2026-05-07 21:23 | -42.30360 | 173.72078 | 19403 ft | 341 kts | 36° |
| 2026-05-07 21:23 | -42.28455 | 173.73948 | 19004 ft | 340 kts | 36° |
| 2026-05-07 21:24 | -42.26537 | 173.75825 | 18503 ft | 341 kts | 36° |
| 2026-05-07 21:24 | -42.24610 | 173.77705 | 18043 ft | 340 kts | 36° |
| 2026-05-07 21:24 | -42.22722 | 173.79555 | 17596 ft | 339 kts | 36° |
| 2026-05-07 21:24 | -42.20813 | 173.81419 | 17145 ft | 337 kts | 36° |
| 2026-05-07 21:25 | -42.18899 | 173.83287 | 16692 ft | 336 kts | 36° |
| 2026-05-07 21:25 | -42.17005 | 173.85132 | 16245 ft | 335 kts | 36° |
| 2026-05-07 21:25 | -42.15140 | 173.86949 | 15805 ft | 333 kts | 36° |
| 2026-05-07 21:25 | -42.13269 | 173.88774 | 15364 ft | 331 kts | 36° |
| 2026-05-07 21:26 | -42.11389 | 173.90602 | 14920 ft | 329 kts | 36° |
| 2026-05-07 21:26 | -42.09557 | 173.92379 | 14488 ft | 327 kts | 36° |
| 2026-05-07 21:26 | -42.07710 | 173.94176 | 14052 ft | 325 kts | 36° |
| 2026-05-07 21:26 | -42.05875 | 173.95957 | 13620 ft | 323 kts | 36° |
| 2026-05-07 21:27 | -42.04080 | 173.97701 | 13196 ft | 322 kts | 36° |
| 2026-05-07 21:27 | -42.02271 | 173.99453 | 12734 ft | 319 kts | 36° |
| 2026-05-07 21:27 | -42.00485 | 174.01182 | 12393 ft | 312 kts | 36° |
| 2026-05-07 21:27 | -41.98730 | 174.02880 | 11986 ft | 308 kts | 36° |
| 2026-05-07 21:28 | -41.96995 | 174.04558 | 11588 ft | 306 kts | 36° |
| 2026-05-07 21:28 | -41.95289 | 174.06205 | 11184 ft | 304 kts | 36° |
| 2026-05-07 21:28 | -41.93573 | 174.07861 | 10783 ft | 302 kts | 36° |
| 2026-05-07 21:28 | -41.91866 | 174.09510 | 10381 ft | 300 kts | 36° |
| 2026-05-07 21:29 | -41.90170 | 174.11149 | 9981 ft | 298 kts | 36° |
| 2026-05-07 21:29 | -41.88520 | 174.12738 | 9593 ft | 292 kts | 36° |
| 2026-05-07 21:29 | -41.87340 | 174.13872 | 9321 ft | 290 kts | 36° |
| 2026-05-07 21:29 | -41.85708 | 174.15444 | 8931 ft | 288 kts | 36° |
| 2026-05-07 21:30 | -41.84085 | 174.17006 | 8549 ft | 286 kts | 36° |
| 2026-05-07 21:30 | -41.82470 | 174.18559 | 8170 ft | 284 kts | 36° |
| 2026-05-07 21:30 | -41.80873 | 174.20096 | 7793 ft | 282 kts | 36° |
| 2026-05-07 21:30 | -41.79297 | 174.21608 | 7423 ft | 281 kts | 36° |
| 2026-05-07 21:31 | -41.77713 | 174.23133 | 7049 ft | 280 kts | 36° |
| 2026-05-07 21:31 | -41.76132 | 174.24653 | 6677 ft | 278 kts | 36° |
| 2026-05-07 21:31 | -41.74554 | 174.26166 | 6307 ft | 277 kts | 36° |
| 2026-05-07 21:31 | -41.73035 | 174.27736 | 6071 ft | 272 kts | 44° |
| 2026-05-07 21:32 | -41.71765 | 174.29502 | 6066 ft | 262 kts | 45° |
| 2026-05-07 21:32 | -41.70475 | 174.31184 | 6060 ft | 256 kts | 44° |
| 2026-05-07 21:32 | -41.69205 | 174.32842 | 6024 ft | 255 kts | 45° |
| 2026-05-07 21:32 | -41.67938 | 174.34557 | 5771 ft | 260 kts | 45° |
| 2026-05-07 21:33 | -41.66668 | 174.36282 | 5442 ft | 266 kts | 45° |
| 2026-05-07 21:33 | -41.65349 | 174.38044 | 5100 ft | 268 kts | 45° |
| 2026-05-07 21:33 | -41.64034 | 174.39772 | 5065 ft | 260 kts | 44° |
| 2026-05-07 21:33 | -41.62778 | 174.41423 | 5056 ft | 254 kts | 45° |
| 2026-05-07 21:34 | -41.61517 | 174.43103 | 5059 ft | 251 kts | 45° |
| 2026-05-07 21:34 | -41.60306 | 174.44723 | 5057 ft | 249 kts | 45° |
| 2026-05-07 21:34 | -41.59081 | 174.46355 | 5055 ft | 248 kts | 45° |
| 2026-05-07 21:34 | -41.57859 | 174.47980 | 5053 ft | 247 kts | 45° |
| 2026-05-07 21:35 | -41.56634 | 174.49609 | 4973 ft | 250 kts | 45° |
| 2026-05-07 21:35 | -41.55384 | 174.51278 | 4694 ft | 257 kts | 45° |
| 2026-05-07 21:35 | -41.54118 | 174.52972 | 4361 ft | 263 kts | 45° |
| 2026-05-07 21:35 | -41.52804 | 174.54714 | 4007 ft | 266 kts | 44° |
| 2026-05-07 21:36 | -41.51478 | 174.56454 | 3651 ft | 267 kts | 45° |
| 2026-05-07 21:36 | -41.50441 | 174.57964 | 3363 ft | 268 kts | 54° |
| 2026-05-07 21:36 | -41.50022 | 174.58877 | 3210 ft | 268 kts | 63° |
| 2026-05-07 21:37 | -41.49394 | 174.61189 | 3070 ft | 259 kts | 78° |
| 2026-05-07 21:37 | -41.49253 | 174.63534 | 3070 ft | 249 kts | 93° |
| 2026-05-07 21:37 | -41.49347 | 174.65789 | 3063 ft | 244 kts | 93° |
| 2026-05-07 21:37 | -41.49406 | 174.67776 | 3010 ft | 244 kts | 93° |
| 2026-05-07 21:38 | -41.49430 | 174.68451 | 2971 ft | 245 kts | 94° |
| 2026-05-07 21:38 | -41.49521 | 174.70550 | 2817 ft | 248 kts | 94° |
| 2026-05-07 21:38 | -41.49620 | 174.72824 | 2608 ft | 250 kts | 94° |
| 2026-05-07 21:38 | -41.49706 | 174.75152 | 2383 ft | 251 kts | 92° |
| 2026-05-07 21:39 | -41.49417 | 174.77433 | 2124 ft | 252 kts | 67° |
| 2026-05-07 21:39 | -41.48325 | 174.79209 | 2047 ft | 245 kts | 35° |
| 2026-05-07 21:39 | -41.46765 | 174.79978 | 2048 ft | 238 kts | 5° |
| 2026-05-07 21:39 | -41.45120 | 174.79998 | 2053 ft | 233 kts | 359° |
| 2026-05-07 21:40 | -41.43659 | 174.79982 | 1983 ft | 191 kts | 360° |
| 2026-05-07 21:40 | -41.42435 | 174.80033 | 1788 ft | 165 kts | 2° |
| 2026-05-07 21:40 | -41.41334 | 174.80111 | 1580 ft | 150 kts | 2° |
| 2026-05-07 21:40 | -41.40454 | 174.80175 | 1410 ft | 112 kts | 1° |
| 2026-05-07 21:41 | -41.39721 | 174.80222 | 1264 ft | 100 kts | 1° |
| 2026-05-07 21:41 | -41.39046 | 174.80265 | 1134 ft | 95 kts | 0° |
| 2026-05-07 21:41 | -41.38390 | 174.80307 | 1004 ft | 94 kts | 0° |
| 2026-05-07 21:41 | -41.37744 | 174.80350 | 883 ft | 92 kts | 1° |
| 2026-05-07 21:42 | -41.37116 | 174.80392 | 764 ft | 91 kts | 1° |
| 2026-05-07 21:42 | -41.36488 | 174.80433 | 646 ft | 90 kts | 1° |
| 2026-05-07 21:42 | -41.35861 | 174.80475 | 527 ft | 90 kts | 1° |
| 2026-05-07 21:42 | -41.35234 | 174.80518 | 406 ft | 89 kts | 1° |
| 2026-05-07 21:43 | -41.34624 | 174.80559 | 288 ft | 86 kts | 1° |
| 2026-05-07 21:43 | -41.34435 | 174.80572 | 250 ft | 85 kts | 1° |
| 2026-05-07 21:43 | -41.34209 | 174.80590 | 201 ft | 85 kts | 2° |
| 2026-05-07 21:43 | -41.33615 | 174.80628 | 68 ft | 84 kts | 1° |
| 2026-05-07 21:44 | -41.33054 | 174.80667 | 14 ft | 73 kts | 2° |
| 2026-05-07 21:44 | -41.32620 | 174.80692 | 16 ft | 40 kts | 5° |
| 2026-05-07 21:44 | -41.32443 | 174.80706 | 15 ft | 22 kts | 7° |
| 2026-05-07 21:44 | -41.32415 | 174.80787 | 16 ft | 9 kts | 98° |
| 2026-05-07 21:45 | -41.32477 | 174.80832 | 15 ft | 13 kts | 182° |
| 2026-05-07 21:45 | -41.32590 | 174.80826 | 13 ft | 20 kts | 181° |
| 2026-05-07 21:45 | -41.32634 | 174.80821 | 13 ft | 1 kts | 186° |
| 2026-05-07 21:45 | -41.32664 | 174.80820 | 13 ft | 8 kts | 179° |
| 2026-05-07 21:46 | -41.32740 | 174.80814 | 12 ft | 14 kts | 185° |
| 2026-05-07 21:46 | -41.32857 | 174.80806 | 12 ft | 20 kts | 185° |
| 2026-05-07 21:46 | -41.33003 | 174.80797 | 13 ft | 16 kts | 186° |
| 2026-05-07 21:46 | -41.33085 | 174.80799 | 13 ft | 11 kts | 147° |
| 2026-05-07 21:47 | -41.33105 | 174.80892 | 15 ft | 11 kts | 93° |
| 2026-05-07 21:47 | -41.33106 | 174.80945 | 15 ft | 0 kts | 93° |
| 2026-05-07 21:47 | -41.33111 | 174.80963 | 15 ft | 7 kts | 114° |
| 2026-05-07 21:47 | -41.33084 | 174.81030 | 14 ft | 11 kts | 28° |
| 2026-05-07 21:48 | -41.33057 | 174.81046 | 14 ft | 0 kts | 25° |
| 2026-05-07 21:48 | -41.33065 | 174.81021 | 14 ft | 11 kts | 186° |
| 2026-05-07 21:48 | -41.33125 | 174.80994 | 15 ft | 8 kts | 208° |
| 2026-05-07 21:49 | -41.33148 | 174.80982 | 15 ft | 0 kts | 170° |
| 2026-05-07 21:49 | -41.33201 | 174.80976 | 15 ft | 11 kts | 185° |
| 2026-05-07 21:50 | -41.33245 | 174.81003 | 15 ft | 0 kts | 110° |
| 2026-05-07 21:50 | -41.33257 | 174.81037 | 16 ft | 9 kts | 146° |
| 2026-05-07 21:50 | -41.33268 | 174.81042 | 16 ft | 1 kts | 173° |
| 2026-05-07 21:50 | -41.33288 | 174.81043 | 16 ft | 1 kts | 175° |
| 2026-05-07 21:51 | -41.33291 | 174.81044 | 16 ft | 0 kts | 177° |
| 2026-05-07 21:51 | -41.33291 | 174.81043 | 16 ft | 0 kts | 181° |
| 2026-05-07 21:54 | -41.41827 | 174.80173 | 1673 ft | 156 kts | 354° |
| 2026-05-07 21:55 | -41.41108 | 174.80224 | 1542 ft | 160 kts | 357° |
| 2026-05-07 21:55 | -41.40025 | 174.80202 | 1322 ft | 116 kts | 1° |
| 2026-05-07 21:55 | -41.39486 | 174.80246 | 777 ft | 150 kts | 5° |
| 2026-05-07 21:55 | -41.38461 | 174.80439 | 232 ft | 123 kts | 6° |
| 2026-05-07 21:56 | -41.37745 | 174.80493 | 2 ft | 68 kts | 354° |
| 2026-05-07 21:56 | -41.32618 | 174.80824 | 13 ft | 16 kts | 184° |
| 2026-05-07 21:56 | -41.32478 | 174.80705 | 16 ft | 0 kts | 360° |
| 2026-05-07 21:57 | -41.33291 | 174.81043 | 16 ft | 0 kts | 181° |
| 2026-05-07 21:58 | -41.32632 | 174.80822 | 13 ft | 1 kts | 186° |
| 2026-05-07 21:58 | -41.33652 | 174.80626 | 46 ft | 79 kts | 2° |
| 2026-05-07 21:58 | -41.33432 | 174.80708 | 10 ft | 0 kts | 37° |
| 2026-05-07 21:59 | -41.41891 | 174.80072 | 1682 ft | 158 kts | 2° |
| 2026-05-07 21:59 | -41.41327 | 174.80112 | 1579 ft | 150 kts | 2° |
| 2026-05-07 21:59 | -41.40902 | 174.80143 | 1502 ft | 127 kts | 2° |
| 2026-05-07 22:00 | -41.40534 | 174.80169 | 1427 ft | 115 kts | 1° |
| 2026-05-07 22:00 | -41.40299 | 174.80184 | 1378 ft | 117 kts | 1° |
| 2026-05-07 22:00 | -41.38637 | 174.80291 | 1052 ft | 94 kts | 0° |
| 2026-05-07 22:00 | -41.37340 | 174.80376 | 806 ft | 91 kts | 1° |
| 2026-05-07 22:01 | -41.36110 | 174.80458 | 575 ft | 90 kts | 1° |
| 2026-05-07 22:01 | -41.34921 | 174.80538 | 347 ft | 88 kts | 1° |
| 2026-05-07 22:01 | -41.33754 | 174.80620 | 95 ft | 85 kts | 1° |
| 2026-05-07 22:01 | -41.32720 | 174.80687 | 12 ft | 60 kts | 2° |
| 2026-05-07 22:02 | -41.32415 | 174.80790 | 16 ft | 9 kts | 92° |
| 2026-05-07 22:02 | -41.33820 | 174.80615 | 106 ft | 86 kts | 1° |
| 2026-05-07 22:02 | -41.33368 | 174.80646 | 30 ft | 83 kts | 1° |
| 2026-05-07 22:02 | -41.33134 | 174.80661 | 17 ft | 76 kts | 2° |
| 2026-05-07 22:03 | -41.32981 | 174.80672 | 14 ft | 70 kts | 0° |
| 2026-05-07 22:03 | -41.32841 | 174.80677 | 13 ft | 65 kts | 2° |
| 2026-05-07 22:03 | -41.34683 | 174.80555 | 300 ft | 87 kts | 1° |
| 2026-05-07 22:03 | -41.33565 | 174.80632 | 60 ft | 84 kts | 2° |
| 2026-05-07 22:04 | -41.33397 | 174.80644 | 33 ft | 83 kts | 1° |
| 2026-05-07 22:04 | -41.32864 | 174.80676 | 13 ft | 65 kts | 1° |
| 2026-05-07 22:04 | -41.32539 | 174.80700 | 17 ft | 27 kts | 6° |
| 2026-05-07 22:04 | -41.32411 | 174.80759 | 16 ft | 18 kts | 97° |
| 2026-05-07 22:05 | -41.32435 | 174.80830 | 16 ft | 9 kts | 167° |
| 2026-05-07 22:05 | -41.32521 | 174.80828 | 14 ft | 16 kts | 183° |
| 2026-05-07 22:05 | -41.32632 | 174.80822 | 13 ft | 1 kts | 186° |
| 2026-05-07 22:05 | -41.32657 | 174.80820 | 13 ft | 7 kts | 180° |
| 2026-05-07 22:06 | -41.32733 | 174.80815 | 12 ft | 13 kts | 185° |